Faisalabad Weather



Faisalabad's Current Weather

Temprature 19.03o clear sky

clear sky

Rain: 0 %

Min Temprature19.03o
Max Temprature19.03o
Humidity24
Wind Speed1.92 m/h
Sun Rise06:20:16
Sun Set17:22:26
Current Time: 28-Oct-2020 04:16:32
Lat/Lon: 31.42, 73.08




Faisalabad's Geo Location



Faisalabad's Weather Forecast

Time Overall Temp Min Temp Max Temp Humidity Wind Speed Rain
28-Oct-2020 (Wed)
05:00:00 clear sky 18.930 18.630 18.930 25 2.18 m/h 0 %
08:00:00 clear sky 21.550 21.550 22.190 20 1.98 m/h 0 %
11:00:00 clear sky 29.960 29.960 30.700 12 2.56 m/h 0 %
14:00:00 clear sky 33.460 33.460 33.570 10 1.91 m/h 0 %
17:00:00 clear sky 29.040 29.040 29.040 14 0.92 m/h 0 %
20:00:00 clear sky 23.530 23.530 23.530 19 1.4 m/h 0 %
23:00:00 clear sky 20.980 20.980 20.980 22 2.15 m/h 0 %
29-Oct-2020 (Thu)
02:00:00 clear sky 19.050 19.050 19.050 25 2.42 m/h 0 %
05:00:00 clear sky 17.540 17.540 17.540 28 1.69 m/h 0 %
08:00:00 clear sky 21.440 21.440 21.440 22 1.74 m/h 0 %
11:00:00 clear sky 30.570 30.570 30.570 12 1.38 m/h 0 %
14:00:00 clear sky 33.560 33.560 33.560 11 0.9 m/h 0 %
17:00:00 clear sky 28.930 28.930 28.930 14 1.95 m/h 0 %
20:00:00 clear sky 23.670 23.670 23.670 19 2.28 m/h 0 %
23:00:00 clear sky 21.240 21.240 21.240 22 2.14 m/h 0 %
30-Oct-2020 (Fri)
02:00:00 clear sky 19.250 19.250 19.250 25 2.18 m/h 0 %
05:00:00 clear sky 17.480 17.480 17.480 28 1.72 m/h 0 %
08:00:00 clear sky 21.440 21.440 21.440 22 2.24 m/h 0 %
11:00:00 clear sky 30.520 30.520 30.520 13 3.16 m/h 0 %
14:00:00 clear sky 33.170 33.170 33.170 10 3.08 m/h 0 %
17:00:00 clear sky 28.630 28.630 28.630 13 2.43 m/h 0 %
20:00:00 clear sky 22.920 22.920 22.920 18 2.45 m/h 0 %
23:00:00 clear sky 20.330 20.330 20.330 22 1.86 m/h 0 %
31-Oct-2020 (Sat)
02:00:00 clear sky 18.590 18.590 18.590 24 1.62 m/h 0 %
05:00:00 clear sky 17.570 17.570 17.570 26 1.27 m/h 0 %
08:00:00 clear sky 22.310 22.310 22.310 19 1.12 m/h 0 %
11:00:00 clear sky 30.750 30.750 30.750 11 2.39 m/h 0 %
14:00:00 clear sky 33.420 33.420 33.420 10 3.91 m/h 0 %
17:00:00 clear sky 28.570 28.570 28.570 13 3.23 m/h 0 %
20:00:00 clear sky 22.840 22.840 22.840 19 2.77 m/h 0 %
23:00:00 clear sky 19.970 19.970 19.970 22 1.47 m/h 0 %
01-Nov-2020 (Sun)
02:00:00 clear sky 18.810 18.810 18.810 22 1.35 m/h 0 %
05:00:00 clear sky 17.120 17.120 17.120 24 0.08 m/h 0 %
08:00:00 clear sky 21.230 21.230 21.230 19 0.39 m/h 0 %
11:00:00 clear sky 30.730 30.730 30.730 11 0.99 m/h 0 %
14:00:00 clear sky 32.930 32.930 32.930 10 2.74 m/h 0 %
17:00:00 clear sky 28.020 28.020 28.020 13 2.63 m/h 0 %
20:00:00 clear sky 23.020 23.020 23.020 18 2.54 m/h 0 %
23:00:00 clear sky 20.220 20.220 20.220 22 1.85 m/h 0 %
02-Nov-2020 (Mon)
02:00:00 clear sky 18.000 18.000 18.000 24 0.59 m/h 0 %


Faisalabad's Tourist Spots

Parks and Zoos in Faisalabad

Famous Cities (60)